sensor_id;sensor_type;location;lat;lon;timestamp;P1;durP1;ratioP1;P2;durP2;ratioP2
1328;SDS011;658;48.820;9.354;2024-01-30T00:00:33;4.73;;;4.33;;
1328;SDS011;658;48.820;9.354;2024-01-30T00:04:34;4.47;;;4.17;;
1328;SDS011;658;48.820;9.354;2024-01-30T00:08:34;4.13;;;3.83;;
1328;SDS011;658;48.820;9.354;2024-01-30T00:12:35;5.20;;;4.80;;
1328;SDS011;658;48.820;9.354;2024-01-30T00:16:36;4.23;;;3.93;;
1328;SDS011;658;48.820;9.354;2024-01-30T00:20:38;4.67;;;4.37;;
1328;SDS011;658;48.820;9.354;2024-01-30T00:24:39;4.17;;;3.87;;
1328;SDS011;658;48.820;9.354;2024-01-30T00:28:43;4.57;;;4.20;;
1328;SDS011;658;48.820;9.354;2024-01-30T00:32:44;4.50;;;4.20;;
1328;SDS011;658;48.820;9.354;2024-01-30T00:36:44;4.47;;;4.17;;
1328;SDS011;658;48.820;9.354;2024-01-30T00:40:45;4.73;;;4.43;;
1328;SDS011;658;48.820;9.354;2024-01-30T00:44:45;4.23;;;3.93;;
1328;SDS011;658;48.820;9.354;2024-01-30T00:48:46;4.50;;;4.20;;
1328;SDS011;658;48.820;9.354;2024-01-30T00:52:46;4.33;;;4.03;;
1328;SDS011;658;48.820;9.354;2024-01-30T00:56:47;4.50;;;4.20;;
1328;SDS011;658;48.820;9.354;2024-01-30T01:00:50;4.63;;;4.33;;
1328;SDS011;658;48.820;9.354;2024-01-30T01:04:50;4.13;;;3.83;;
1328;SDS011;658;48.820;9.354;2024-01-30T01:08:51;4.07;;;3.77;;
1328;SDS011;658;48.820;9.354;2024-01-30T01:12:51;4.10;;;3.90;;
1328;SDS011;658;48.820;9.354;2024-01-30T01:16:52;4.00;;;3.80;;
1328;SDS011;658;48.820;9.354;2024-01-30T01:20:53;4.47;;;4.10;;
1328;SDS011;658;48.820;9.354;2024-01-30T01:24:53;4.30;;;4.00;;
1328;SDS011;658;48.820;9.354;2024-01-30T01:28:54;4.77;;;4.43;;
1328;SDS011;658;48.820;9.354;2024-01-30T01:32:56;4.13;;;3.83;;
1328;SDS011;658;48.820;9.354;2024-01-30T01:37:02;4.40;;;4.00;;
1328;SDS011;658;48.820;9.354;2024-01-30T01:41:03;4.83;;;3.93;;
1328;SDS011;658;48.820;9.354;2024-01-30T01:45:03;3.93;;;3.63;;
1328;SDS011;658;48.820;9.354;2024-01-30T01:49:05;4.17;;;3.87;;
1328;SDS011;658;48.820;9.354;2024-01-30T01:53:07;4.77;;;4.47;;
1328;SDS011;658;48.820;9.354;2024-01-30T01:57:08;4.53;;;4.23;;
1328;SDS011;658;48.820;9.354;2024-01-30T02:01:12;4.07;;;3.77;;
1328;SDS011;658;48.820;9.354;2024-01-30T02:05:14;4.10;;;3.80;;
1328;SDS011;658;48.820;9.354;2024-01-30T02:09:15;4.57;;;4.20;;
1328;SDS011;658;48.820;9.354;2024-01-30T02:13:16;4.10;;;3.80;;
1328;SDS011;658;48.820;9.354;2024-01-30T02:17:17;4.27;;;3.97;;
1328;SDS011;658;48.820;9.354;2024-01-30T02:21:18;3.80;;;3.50;;
1328;SDS011;658;48.820;9.354;2024-01-30T02:25:19;4.20;;;3.90;;
1328;SDS011;658;48.820;9.354;2024-01-30T02:29:22;3.80;;;3.50;;
1328;SDS011;658;48.820;9.354;2024-01-30T02:33:25;3.77;;;3.53;;
1328;SDS011;658;48.820;9.354;2024-01-30T02:37:28;4.20;;;3.90;;
1328;SDS011;658;48.820;9.354;2024-01-30T02:41:29;4.20;;;3.90;;
1328;SDS011;658;48.820;9.354;2024-01-30T02:45:29;4.10;;;3.80;;
1328;SDS011;658;48.820;9.354;2024-01-30T02:49:32;4.30;;;4.00;;
1328;SDS011;658;48.820;9.354;2024-01-30T02:53:33;4.73;;;4.43;;
1328;SDS011;658;48.820;9.354;2024-01-30T02:57:34;4.20;;;3.90;;
1328;SDS011;658;48.820;9.354;2024-01-30T03:01:45;4.60;;;4.20;;
1328;SDS011;658;48.820;9.354;2024-01-30T03:05:46;4.20;;;3.90;;
1328;SDS011;658;48.820;9.354;2024-01-30T03:09:47;4.20;;;3.90;;
1328;SDS011;658;48.820;9.354;2024-01-30T03:13:48;4.10;;;3.80;;
1328;SDS011;658;48.820;9.354;2024-01-30T03:17:48;3.90;;;3.60;;
1328;SDS011;658;48.820;9.354;2024-01-30T03:21:49;3.93;;;3.70;;
1328;SDS011;658;48.820;9.354;2024-01-30T03:25:51;3.80;;;3.50;;
1328;SDS011;658;48.820;9.354;2024-01-30T03:29:51;3.70;;;3.50;;
1328;SDS011;658;48.820;9.354;2024-01-30T03:33:52;4.27;;;3.97;;
1328;SDS011;658;48.820;9.354;2024-01-30T03:37:53;3.93;;;3.73;;
1328;SDS011;658;48.820;9.354;2024-01-30T03:41:56;3.50;;;3.30;;
1328;SDS011;658;48.820;9.354;2024-01-30T03:46:00;3.77;;;3.47;;
1328;SDS011;658;48.820;9.354;2024-01-30T03:50:01;4.30;;;4.00;;
1328;SDS011;658;48.820;9.354;2024-01-30T03:54:04;3.93;;;3.63;;
1328;SDS011;658;48.820;9.354;2024-01-30T03:58:05;3.40;;;3.20;;
1328;SDS011;658;48.820;9.354;2024-01-30T04:02:06;3.27;;;3.07;;
1328;SDS011;658;48.820;9.354;2024-01-30T04:06:06;3.90;;;3.60;;
1328;SDS011;658;48.820;9.354;2024-01-30T04:10:07;4.53;;;4.23;;
1328;SDS011;658;48.820;9.354;2024-01-30T04:14:10;4.10;;;3.80;;
1328;SDS011;658;48.820;9.354;2024-01-30T04:18:10;3.47;;;3.27;;
1328;SDS011;658;48.820;9.354;2024-01-30T04:22:11;4.00;;;3.70;;
1328;SDS011;658;48.820;9.354;2024-01-30T04:26:11;3.80;;;3.50;;
1328;SDS011;658;48.820;9.354;2024-01-30T04:30:12;3.70;;;3.40;;
1328;SDS011;658;48.820;9.354;2024-01-30T04:34:13;3.97;;;3.67;;
1328;SDS011;658;48.820;9.354;2024-01-30T04:38:13;3.50;;;3.30;;
1328;SDS011;658;48.820;9.354;2024-01-30T04:42:14;3.33;;;3.13;;
1328;SDS011;658;48.820;9.354;2024-01-30T04:46:15;3.80;;;3.50;;
1328;SDS011;658;48.820;9.354;2024-01-30T04:50:15;3.50;;;3.30;;
1328;SDS011;658;48.820;9.354;2024-01-30T04:54:16;3.97;;;3.57;;
1328;SDS011;658;48.820;9.354;2024-01-30T04:58:16;3.60;;;3.40;;
1328;SDS011;658;48.820;9.354;2024-01-30T05:02:17;3.83;;;3.53;;
1328;SDS011;658;48.820;9.354;2024-01-30T05:06:24;3.47;;;3.20;;
1328;SDS011;658;48.820;9.354;2024-01-30T05:10:25;3.40;;;3.20;;
1328;SDS011;658;48.820;9.354;2024-01-30T05:14:28;3.37;;;3.17;;
1328;SDS011;658;48.820;9.354;2024-01-30T05:18:29;3.67;;;3.47;;
1328;SDS011;658;48.820;9.354;2024-01-30T05:22:29;3.67;;;3.37;;
1328;SDS011;658;48.820;9.354;2024-01-30T05:26:30;3.30;;;3.10;;
1328;SDS011;658;48.820;9.354;2024-01-30T05:30:33;3.37;;;3.17;;
1328;SDS011;658;48.820;9.354;2024-01-30T05:34:33;3.13;;;2.93;;
1328;SDS011;658;48.820;9.354;2024-01-30T05:38:35;3.23;;;3.03;;
1328;SDS011;658;48.820;9.354;2024-01-30T05:42:36;3.40;;;3.10;;
1328;SDS011;658;48.820;9.354;2024-01-30T05:46:36;3.53;;;3.23;;
1328;SDS011;658;48.820;9.354;2024-01-30T05:50:37;3.60;;;3.30;;
1328;SDS011;658;48.820;9.354;2024-01-30T05:54:37;3.20;;;3.00;;
1328;SDS011;658;48.820;9.354;2024-01-30T05:58:38;3.40;;;3.20;;
1328;SDS011;658;48.820;9.354;2024-01-30T06:02:39;3.53;;;3.30;;
1328;SDS011;658;48.820;9.354;2024-01-30T06:06:40;3.20;;;3.00;;
1328;SDS011;658;48.820;9.354;2024-01-30T06:10:41;4.30;;;4.00;;
1328;SDS011;658;48.820;9.354;2024-01-30T06:14:41;4.10;;;3.80;;
1328;SDS011;658;48.820;9.354;2024-01-30T06:18:42;3.77;;;3.10;;
1328;SDS011;658;48.820;9.354;2024-01-30T06:22:45;5.50;;;3.70;;
1328;SDS011;658;48.820;9.354;2024-01-30T06:26:45;3.80;;;3.50;;
1328;SDS011;658;48.820;9.354;2024-01-30T06:30:46;4.20;;;3.70;;
1328;SDS011;658;48.820;9.354;2024-01-30T06:34:46;3.90;;;3.60;;
1328;SDS011;658;48.820;9.354;2024-01-30T06:38:47;3.80;;;3.50;;
1328;SDS011;658;48.820;9.354;2024-01-30T06:42:48;3.73;;;3.50;;
1328;SDS011;658;48.820;9.354;2024-01-30T06:46:48;5.10;;;3.40;;
1328;SDS011;658;48.820;9.354;2024-01-30T06:50:49;3.63;;;3.33;;
1328;SDS011;658;48.820;9.354;2024-01-30T06:54:51;5.27;;;3.70;;
1328;SDS011;658;48.820;9.354;2024-01-30T06:58:52;3.67;;;3.37;;
1328;SDS011;658;48.820;9.354;2024-01-30T07:02:53;3.30;;;3.00;;
1328;SDS011;658;48.820;9.354;2024-01-30T07:06:53;3.73;;;3.43;;
1328;SDS011;658;48.820;9.354;2024-01-30T07:10:57;4.73;;;4.20;;
1328;SDS011;658;48.820;9.354;2024-01-30T07:14:58;3.80;;;3.50;;
1328;SDS011;658;48.820;9.354;2024-01-30T07:18:59;4.30;;;3.90;;
1328;SDS011;658;48.820;9.354;2024-01-30T07:23:00;3.67;;;3.37;;
1328;SDS011;658;48.820;9.354;2024-01-30T07:27:01;3.63;;;3.33;;
1328;SDS011;658;48.820;9.354;2024-01-30T07:31:01;4.30;;;3.53;;
1328;SDS011;658;48.820;9.354;2024-01-30T07:35:02;3.90;;;3.33;;
1328;SDS011;658;48.820;9.354;2024-01-30T07:39:03;3.60;;;3.30;;
1328;SDS011;658;48.820;9.354;2024-01-30T07:43:06;3.53;;;3.23;;
1328;SDS011;658;48.820;9.354;2024-01-30T07:47:07;3.50;;;3.20;;
1328;SDS011;658;48.820;9.354;2024-01-30T07:51:07;3.03;;;2.83;;
1328;SDS011;658;48.820;9.354;2024-01-30T07:55:08;3.63;;;3.37;;
1328;SDS011;658;48.820;9.354;2024-01-30T07:59:09;3.43;;;3.13;;
1328;SDS011;658;48.820;9.354;2024-01-30T08:03:11;3.40;;;3.20;;
1328;SDS011;658;48.820;9.354;2024-01-30T08:07:16;3.73;;;3.43;;
1328;SDS011;658;48.820;9.354;2024-01-30T08:11:17;3.33;;;3.13;;
1328;SDS011;658;48.820;9.354;2024-01-30T08:15:18;3.67;;;3.37;;
1328;SDS011;658;48.820;9.354;2024-01-30T08:19:19;3.80;;;3.50;;
1328;SDS011;658;48.820;9.354;2024-01-30T08:23:20;3.50;;;3.27;;
1328;SDS011;658;48.820;9.354;2024-01-30T08:27:20;4.00;;;3.60;;
1328;SDS011;658;48.820;9.354;2024-01-30T08:31:21;3.10;;;2.90;;
1328;SDS011;658;48.820;9.354;2024-01-30T08:35:21;3.80;;;3.50;;
1328;SDS011;658;48.820;9.354;2024-01-30T08:39:22;3.30;;;3.10;;
1328;SDS011;658;48.820;9.354;2024-01-30T08:43:22;3.70;;;3.40;;
1328;SDS011;658;48.820;9.354;2024-01-30T08:47:26;2.90;;;2.70;;
1328;SDS011;658;48.820;9.354;2024-01-30T08:51:26;3.20;;;3.00;;
1328;SDS011;658;48.820;9.354;2024-01-30T08:55:27;3.07;;;2.80;;
1328;SDS011;658;48.820;9.354;2024-01-30T08:59:28;3.63;;;3.43;;
1328;SDS011;658;48.820;9.354;2024-01-30T09:03:31;3.47;;;3.27;;
1328;SDS011;658;48.820;9.354;2024-01-30T09:07:31;2.80;;;2.60;;
1328;SDS011;658;48.820;9.354;2024-01-30T09:11:32;3.33;;;3.13;;
1328;SDS011;658;48.820;9.354;2024-01-30T09:15:35;3.10;;;2.80;;
1328;SDS011;658;48.820;9.354;2024-01-30T09:19:35;3.33;;;3.13;;
1328;SDS011;658;48.820;9.354;2024-01-30T09:23:36;3.23;;;3.03;;
1328;SDS011;658;48.820;9.354;2024-01-30T09:27:36;3.57;;;3.27;;
1328;SDS011;658;48.820;9.354;2024-01-30T09:31:37;3.50;;;3.30;;
1328;SDS011;658;48.820;9.354;2024-01-30T09:35:40;3.30;;;3.10;;
1328;SDS011;658;48.820;9.354;2024-01-30T09:39:41;3.10;;;2.90;;
1328;SDS011;658;48.820;9.354;2024-01-30T09:43:41;3.37;;;3.17;;
1328;SDS011;658;48.820;9.354;2024-01-30T09:47:45;3.30;;;3.00;;
1328;SDS011;658;48.820;9.354;2024-01-30T09:51:46;3.30;;;3.00;;
1328;SDS011;658;48.820;9.354;2024-01-30T09:55:48;3.03;;;2.83;;
1328;SDS011;658;48.820;9.354;2024-01-30T09:59:53;3.60;;;3.30;;
1328;SDS011;658;48.820;9.354;2024-01-30T10:03:54;3.03;;;2.83;;
1328;SDS011;658;48.820;9.354;2024-01-30T10:07:56;3.30;;;3.10;;
1328;SDS011;658;48.820;9.354;2024-01-30T10:11:57;3.37;;;3.17;;
1328;SDS011;658;48.820;9.354;2024-01-30T10:15:57;3.00;;;2.80;;
1328;SDS011;658;48.820;9.354;2024-01-30T10:19:58;3.43;;;3.17;;
1328;SDS011;658;48.820;9.354;2024-01-30T10:23:59;3.60;;;3.40;;
1328;SDS011;658;48.820;9.354;2024-01-30T10:27:59;2.80;;;2.70;;
1328;SDS011;658;48.820;9.354;2024-01-30T10:32:00;3.60;;;3.30;;
1328;SDS011;658;48.820;9.354;2024-01-30T10:36:03;3.20;;;3.00;;
1328;SDS011;658;48.820;9.354;2024-01-30T10:40:04;3.87;;;3.60;;
1328;SDS011;658;48.820;9.354;2024-01-30T10:44:09;3.27;;;3.07;;
1328;SDS011;658;48.820;9.354;2024-01-30T10:48:10;4.00;;;3.70;;
1328;SDS011;658;48.820;9.354;2024-01-30T10:52:12;4.20;;;3.90;;
1328;SDS011;658;48.820;9.354;2024-01-30T10:56:14;3.63;;;3.43;;
1328;SDS011;658;48.820;9.354;2024-01-30T11:00:18;4.13;;;3.83;;
1328;SDS011;658;48.820;9.354;2024-01-30T11:04:23;4.40;;;4.10;;
1328;SDS011;658;48.820;9.354;2024-01-30T11:08:25;4.37;;;4.00;;
1328;SDS011;658;48.820;9.354;2024-01-30T11:12:28;3.70;;;3.40;;
1328;SDS011;658;48.820;9.354;2024-01-30T11:16:32;4.87;;;4.37;;
1328;SDS011;658;48.820;9.354;2024-01-30T11:20:33;4.40;;;4.10;;
1328;SDS011;658;48.820;9.354;2024-01-30T11:24:39;4.27;;;4.07;;
1328;SDS011;658;48.820;9.354;2024-01-30T11:28:42;4.47;;;4.20;;
1328;SDS011;658;48.820;9.354;2024-01-30T11:32:42;4.60;;;4.30;;
1328;SDS011;658;48.820;9.354;2024-01-30T11:36:43;4.30;;;4.00;;
1328;SDS011;658;48.820;9.354;2024-01-30T11:40:48;5.10;;;4.00;;
1328;SDS011;658;48.820;9.354;2024-01-30T11:44:52;4.33;;;4.03;;
1328;SDS011;658;48.820;9.354;2024-01-30T11:48:53;4.50;;;4.20;;
1328;SDS011;658;48.820;9.354;2024-01-30T11:52:54;4.47;;;4.17;;
1328;SDS011;658;48.820;9.354;2024-01-30T11:56:57;4.87;;;4.47;;
1328;SDS011;658;48.820;9.354;2024-01-30T12:01:00;4.47;;;4.17;;
1328;SDS011;658;48.820;9.354;2024-01-30T12:05:07;4.50;;;4.20;;
1328;SDS011;658;48.820;9.354;2024-01-30T12:09:08;4.37;;;3.97;;
1328;SDS011;658;48.820;9.354;2024-01-30T12:13:10;4.20;;;3.90;;
1328;SDS011;658;48.820;9.354;2024-01-30T12:17:13;4.40;;;4.10;;
1328;SDS011;658;48.820;9.354;2024-01-30T12:21:33;4.63;;;4.30;;
1328;SDS011;658;48.820;9.354;2024-01-30T12:25:34;4.13;;;3.83;;
1328;SDS011;658;48.820;9.354;2024-01-30T12:29:35;5.00;;;4.03;;
1328;SDS011;658;48.820;9.354;2024-01-30T12:33:35;3.97;;;3.67;;
1328;SDS011;658;48.820;9.354;2024-01-30T12:37:36;4.70;;;4.30;;
1328;SDS011;658;48.820;9.354;2024-01-30T12:41:40;4.83;;;4.03;;
1328;SDS011;658;48.820;9.354;2024-01-30T12:45:43;4.33;;;4.03;;
1328;SDS011;658;48.820;9.354;2024-01-30T12:49:43;3.90;;;3.70;;
1328;SDS011;658;48.820;9.354;2024-01-30T12:53:44;4.10;;;3.80;;
1328;SDS011;658;48.820;9.354;2024-01-30T12:57:47;4.47;;;4.17;;
1328;SDS011;658;48.820;9.354;2024-01-30T13:01:48;4.20;;;3.80;;
1328;SDS011;658;48.820;9.354;2024-01-30T13:05:49;4.20;;;3.90;;
1328;SDS011;658;48.820;9.354;2024-01-30T13:09:49;3.87;;;3.60;;
1328;SDS011;658;48.820;9.354;2024-01-30T13:13:50;3.60;;;3.30;;
1328;SDS011;658;48.820;9.354;2024-01-30T13:17:50;3.73;;;3.43;;
1328;SDS011;658;48.820;9.354;2024-01-30T13:21:54;4.00;;;3.70;;
1328;SDS011;658;48.820;9.354;2024-01-30T13:25:54;4.10;;;3.80;;
1328;SDS011;658;48.820;9.354;2024-01-30T13:29:58;3.80;;;3.60;;
1328;SDS011;658;48.820;9.354;2024-01-30T13:33:58;4.50;;;4.00;;
1328;SDS011;658;48.820;9.354;2024-01-30T13:37:59;3.80;;;3.50;;
1328;SDS011;658;48.820;9.354;2024-01-30T13:42:00;4.40;;;4.10;;
1328;SDS011;658;48.820;9.354;2024-01-30T13:46:00;3.90;;;3.60;;
1328;SDS011;658;48.820;9.354;2024-01-30T13:50:01;3.90;;;3.60;;
1328;SDS011;658;48.820;9.354;2024-01-30T13:54:02;3.63;;;3.40;;
1328;SDS011;658;48.820;9.354;2024-01-30T13:58:03;4.17;;;3.77;;
1328;SDS011;658;48.820;9.354;2024-01-30T14:02:04;4.47;;;4.17;;
1328;SDS011;658;48.820;9.354;2024-01-30T14:06:08;4.17;;;3.87;;
1328;SDS011;658;48.820;9.354;2024-01-30T14:10:09;3.63;;;3.43;;
1328;SDS011;658;48.820;9.354;2024-01-30T14:14:11;3.70;;;3.50;;
1328;SDS011;658;48.820;9.354;2024-01-30T14:18:11;3.60;;;3.40;;
1328;SDS011;658;48.820;9.354;2024-01-30T14:22:12;4.20;;;3.80;;
1328;SDS011;658;48.820;9.354;2024-01-30T14:26:12;3.73;;;3.53;;
1328;SDS011;658;48.820;9.354;2024-01-30T14:30:15;4.30;;;4.00;;
1328;SDS011;658;48.820;9.354;2024-01-30T14:34:19;3.40;;;3.10;;
1328;SDS011;658;48.820;9.354;2024-01-30T14:38:19;3.67;;;3.37;;
1328;SDS011;658;48.820;9.354;2024-01-30T14:42:20;3.27;;;3.07;;
1328;SDS011;658;48.820;9.354;2024-01-30T14:46:21;3.73;;;3.47;;
1328;SDS011;658;48.820;9.354;2024-01-30T14:50:22;3.20;;;3.00;;
1328;SDS011;658;48.820;9.354;2024-01-30T14:54:23;3.73;;;3.50;;
1328;SDS011;658;48.820;9.354;2024-01-30T14:58:26;3.40;;;3.20;;
1328;SDS011;658;48.820;9.354;2024-01-30T15:02:27;3.67;;;3.40;;
1328;SDS011;658;48.820;9.354;2024-01-30T15:06:27;3.60;;;3.40;;
1328;SDS011;658;48.820;9.354;2024-01-30T15:10:29;4.23;;;3.93;;
1328;SDS011;658;48.820;9.354;2024-01-30T15:14:29;3.53;;;3.33;;
1328;SDS011;658;48.820;9.354;2024-01-30T15:18:30;3.67;;;3.37;;
1328;SDS011;658;48.820;9.354;2024-01-30T15:22:33;3.00;;;2.80;;
1328;SDS011;658;48.820;9.354;2024-01-30T15:26:33;3.70;;;3.40;;
1328;SDS011;658;48.820;9.354;2024-01-30T15:30:34;3.90;;;3.60;;
1328;SDS011;658;48.820;9.354;2024-01-30T15:34:35;3.43;;;3.13;;
1328;SDS011;658;48.820;9.354;2024-01-30T15:38:35;3.93;;;3.63;;
1328;SDS011;658;48.820;9.354;2024-01-30T15:42:36;4.20;;;3.80;;
1328;SDS011;658;48.820;9.354;2024-01-30T15:46:37;4.63;;;3.70;;
1328;SDS011;658;48.820;9.354;2024-01-30T15:50:37;4.73;;;4.33;;
1328;SDS011;658;48.820;9.354;2024-01-30T15:54:39;5.03;;;4.43;;
1328;SDS011;658;48.820;9.354;2024-01-30T15:58:40;4.50;;;4.17;;
1328;SDS011;658;48.820;9.354;2024-01-30T16:02:41;4.60;;;4.20;;
1328;SDS011;658;48.820;9.354;2024-01-30T16:06:42;4.90;;;4.40;;
1328;SDS011;658;48.820;9.354;2024-01-30T16:10:42;4.70;;;4.30;;
1328;SDS011;658;48.820;9.354;2024-01-30T16:14:43;4.57;;;4.13;;
1328;SDS011;658;48.820;9.354;2024-01-30T16:18:44;4.33;;;4.00;;
1328;SDS011;658;48.820;9.354;2024-01-30T16:22:44;3.87;;;3.60;;
1328;SDS011;658;48.820;9.354;2024-01-30T16:26:45;4.80;;;4.40;;
1328;SDS011;658;48.820;9.354;2024-01-30T16:30:47;4.60;;;4.20;;
1328;SDS011;658;48.820;9.354;2024-01-30T16:34:47;4.77;;;4.23;;
1328;SDS011;658;48.820;9.354;2024-01-30T16:38:48;4.37;;;4.07;;
1328;SDS011;658;48.820;9.354;2024-01-30T16:42:49;4.50;;;4.20;;
1328;SDS011;658;48.820;9.354;2024-01-30T16:46:49;4.37;;;4.07;;
1328;SDS011;658;48.820;9.354;2024-01-30T16:50:50;6.43;;;4.40;;
1328;SDS011;658;48.820;9.354;2024-01-30T16:54:51;4.37;;;4.07;;
1328;SDS011;658;48.820;9.354;2024-01-30T16:58:53;4.77;;;4.30;;
1328;SDS011;658;48.820;9.354;2024-01-30T17:02:53;4.10;;;3.80;;
1328;SDS011;658;48.820;9.354;2024-01-30T17:06:54;4.37;;;3.97;;
1328;SDS011;658;48.820;9.354;2024-01-30T17:10:55;4.43;;;4.13;;
1328;SDS011;658;48.820;9.354;2024-01-30T17:14:55;4.10;;;3.80;;
1328;SDS011;658;48.820;9.354;2024-01-30T17:18:58;4.40;;;4.10;;
1328;SDS011;658;48.820;9.354;2024-01-30T17:22:58;4.30;;;3.90;;
1328;SDS011;658;48.820;9.354;2024-01-30T17:27:03;3.97;;;3.67;;
1328;SDS011;658;48.820;9.354;2024-01-30T17:31:04;3.93;;;3.63;;
1328;SDS011;658;48.820;9.354;2024-01-30T17:35:05;3.50;;;3.30;;
1328;SDS011;658;48.820;9.354;2024-01-30T17:39:06;3.70;;;3.40;;
1328;SDS011;658;48.820;9.354;2024-01-30T17:43:08;4.30;;;3.90;;
1328;SDS011;658;48.820;9.354;2024-01-30T17:47:10;4.60;;;3.83;;
1328;SDS011;658;48.820;9.354;2024-01-30T17:51:11;4.10;;;3.80;;
1328;SDS011;658;48.820;9.354;2024-01-30T17:55:12;4.10;;;3.80;;
1328;SDS011;658;48.820;9.354;2024-01-30T17:59:12;3.87;;;3.57;;
1328;SDS011;658;48.820;9.354;2024-01-30T18:03:13;4.33;;;4.03;;
1328;SDS011;658;48.820;9.354;2024-01-30T18:07:14;4.20;;;3.90;;
1328;SDS011;658;48.820;9.354;2024-01-30T18:11:14;4.20;;;3.90;;
1328;SDS011;658;48.820;9.354;2024-01-30T18:15:15;4.70;;;4.30;;
1328;SDS011;658;48.820;9.354;2024-01-30T18:19:16;4.50;;;4.20;;
1328;SDS011;658;48.820;9.354;2024-01-30T18:23:17;4.43;;;4.13;;
1328;SDS011;658;48.820;9.354;2024-01-30T18:27:18;4.80;;;4.03;;
1328;SDS011;658;48.820;9.354;2024-01-30T18:31:21;4.00;;;3.70;;
1328;SDS011;658;48.820;9.354;2024-01-30T18:35:27;4.87;;;4.40;;
1328;SDS011;658;48.820;9.354;2024-01-30T18:39:28;5.50;;;5.10;;
1328;SDS011;658;48.820;9.354;2024-01-30T18:43:29;5.97;;;5.37;;
1328;SDS011;658;48.820;9.354;2024-01-30T18:47:31;5.80;;;5.20;;
1328;SDS011;658;48.820;9.354;2024-01-30T18:51:31;7.00;;;6.40;;
1328;SDS011;658;48.820;9.354;2024-01-30T18:55:34;9.50;;;7.40;;
1328;SDS011;658;48.820;9.354;2024-01-30T18:59:35;9.40;;;7.30;;
1328;SDS011;658;48.820;9.354;2024-01-30T19:03:38;13.50;;;9.37;;
1328;SDS011;658;48.820;9.354;2024-01-30T19:07:39;11.13;;;8.60;;
1328;SDS011;658;48.820;9.354;2024-01-30T19:11:39;13.83;;;9.80;;
1328;SDS011;658;48.820;9.354;2024-01-30T19:15:42;9.87;;;8.80;;
1328;SDS011;658;48.820;9.354;2024-01-30T19:19:47;13.17;;;10.37;;
1328;SDS011;658;48.820;9.354;2024-01-30T19:23:48;12.73;;;10.40;;
1328;SDS011;658;48.820;9.354;2024-01-30T19:27:51;14.47;;;10.60;;
1328;SDS011;658;48.820;9.354;2024-01-30T19:31:52;17.17;;;11.50;;
1328;SDS011;658;48.820;9.354;2024-01-30T19:35:55;13.00;;;11.60;;
1328;SDS011;658;48.820;9.354;2024-01-30T19:39:58;14.10;;;11.30;;
1328;SDS011;658;48.820;9.354;2024-01-30T19:44:01;15.00;;;11.40;;
1328;SDS011;658;48.820;9.354;2024-01-30T19:48:01;14.93;;;11.33;;
1328;SDS011;658;48.820;9.354;2024-01-30T19:52:02;14.33;;;11.33;;
1328;SDS011;658;48.820;9.354;2024-01-30T19:56:07;11.27;;;10.00;;
1328;SDS011;658;48.820;9.354;2024-01-30T20:00:07;15.80;;;11.37;;
1328;SDS011;658;48.820;9.354;2024-01-30T20:04:13;13.47;;;11.03;;
1328;SDS011;658;48.820;9.354;2024-01-30T20:08:13;14.37;;;10.50;;
1328;SDS011;658;48.820;9.354;2024-01-30T20:12:15;11.63;;;9.97;;
1328;SDS011;658;48.820;9.354;2024-01-30T20:16:16;15.13;;;11.37;;
1328;SDS011;658;48.820;9.354;2024-01-30T20:20:16;12.10;;;9.70;;
1328;SDS011;658;48.820;9.354;2024-01-30T20:24:17;13.37;;;10.60;;
1328;SDS011;658;48.820;9.354;2024-01-30T20:28:18;10.97;;;9.30;;
1328;SDS011;658;48.820;9.354;2024-01-30T20:32:18;13.17;;;10.80;;
1328;SDS011;658;48.820;9.354;2024-01-30T20:36:19;11.97;;;10.00;;
1328;SDS011;658;48.820;9.354;2024-01-30T20:40:20;12.73;;;9.97;;
1328;SDS011;658;48.820;9.354;2024-01-30T20:44:21;11.80;;;9.40;;
1328;SDS011;658;48.820;9.354;2024-01-30T20:48:21;12.10;;;10.13;;
1328;SDS011;658;48.820;9.354;2024-01-30T20:52:22;11.43;;;9.87;;
1328;SDS011;658;48.820;9.354;2024-01-30T20:56:23;13.13;;;9.60;;
1328;SDS011;658;48.820;9.354;2024-01-30T21:00:23;12.60;;;8.50;;
1328;SDS011;658;48.820;9.354;2024-01-30T21:04:24;11.17;;;9.90;;
1328;SDS011;658;48.820;9.354;2024-01-30T21:08:25;13.27;;;9.83;;
1328;SDS011;658;48.820;9.354;2024-01-30T21:12:28;9.90;;;8.90;;
1328;SDS011;658;48.820;9.354;2024-01-30T21:16:29;10.67;;;9.53;;
1328;SDS011;658;48.820;9.354;2024-01-30T21:20:32;10.33;;;9.23;;
1328;SDS011;658;48.820;9.354;2024-01-30T21:24:32;11.53;;;9.00;;
1328;SDS011;658;48.820;9.354;2024-01-30T21:28:34;9.03;;;8.13;;
1328;SDS011;658;48.820;9.354;2024-01-30T21:32:37;10.20;;;9.00;;
1328;SDS011;658;48.820;9.354;2024-01-30T21:36:38;10.63;;;8.87;;
1328;SDS011;658;48.820;9.354;2024-01-30T21:40:39;10.20;;;8.93;;
1328;SDS011;658;48.820;9.354;2024-01-30T21:44:40;9.00;;;8.17;;
1328;SDS011;658;48.820;9.354;2024-01-30T21:48:43;11.60;;;9.53;;
1328;SDS011;658;48.820;9.354;2024-01-30T21:52:46;8.40;;;7.50;;
1328;SDS011;658;48.820;9.354;2024-01-30T21:56:46;9.37;;;8.40;;
1328;SDS011;658;48.820;9.354;2024-01-30T22:00:47;9.73;;;8.60;;
1328;SDS011;658;48.820;9.354;2024-01-30T22:04:48;9.23;;;7.80;;
1328;SDS011;658;48.820;9.354;2024-01-30T22:08:48;7.87;;;7.07;;
1328;SDS011;658;48.820;9.354;2024-01-30T22:12:51;7.97;;;7.17;;
1328;SDS011;658;48.820;9.354;2024-01-30T22:16:51;8.67;;;7.77;;
1328;SDS011;658;48.820;9.354;2024-01-30T22:20:52;8.90;;;7.80;;
1328;SDS011;658;48.820;9.354;2024-01-30T22:24:52;8.80;;;8.00;;
1328;SDS011;658;48.820;9.354;2024-01-30T22:28:53;8.30;;;7.50;;
1328;SDS011;658;48.820;9.354;2024-01-30T22:32:57;7.63;;;6.83;;
1328;SDS011;658;48.820;9.354;2024-01-30T22:36:58;7.80;;;7.10;;
1328;SDS011;658;48.820;9.354;2024-01-30T22:40:58;7.80;;;7.20;;
1328;SDS011;658;48.820;9.354;2024-01-30T22:45:01;8.00;;;7.20;;
1328;SDS011;658;48.820;9.354;2024-01-30T22:49:02;7.73;;;6.93;;
1328;SDS011;658;48.820;9.354;2024-01-30T22:53:03;7.63;;;7.03;;
1328;SDS011;658;48.820;9.354;2024-01-30T22:57:03;8.17;;;7.37;;
1328;SDS011;658;48.820;9.354;2024-01-30T23:01:04;7.57;;;6.87;;
1328;SDS011;658;48.820;9.354;2024-01-30T23:05:05;7.40;;;6.80;;
1328;SDS011;658;48.820;9.354;2024-01-30T23:09:13;9.33;;;7.07;;
1328;SDS011;658;48.820;9.354;2024-01-30T23:13:16;7.20;;;6.60;;
1328;SDS011;658;48.820;9.354;2024-01-30T23:17:17;7.97;;;7.17;;
1328;SDS011;658;48.820;9.354;2024-01-30T23:21:17;7.00;;;6.30;;
1328;SDS011;658;48.820;9.354;2024-01-30T23:25:18;7.27;;;6.57;;
1328;SDS011;658;48.820;9.354;2024-01-30T23:29:19;7.70;;;7.00;;
1328;SDS011;658;48.820;9.354;2024-01-30T23:33:19;6.90;;;6.20;;
1328;SDS011;658;48.820;9.354;2024-01-30T23:37:20;7.03;;;6.43;;
1328;SDS011;658;48.820;9.354;2024-01-30T23:41:21;6.53;;;5.93;;
1328;SDS011;658;48.820;9.354;2024-01-30T23:45:21;7.00;;;6.27;;
1328;SDS011;658;48.820;9.354;2024-01-30T23:49:24;7.20;;;6.60;;
1328;SDS011;658;48.820;9.354;2024-01-30T23:53:27;7.40;;;6.80;;
1328;SDS011;658;48.820;9.354;2024-01-30T23:57:28;7.50;;;6.90;;
